sensor_id;sensor_type;location;lat;lon;timestamp;temperature;humidity
10171;DHT22;5127;50.922;6.988;2024-03-08T00:01:25;7.10;60.80
10171;DHT22;5127;50.922;6.988;2024-03-08T00:03:53;7.10;60.90
10171;DHT22;5127;50.922;6.988;2024-03-08T00:06:20;7.10;61.00
10171;DHT22;5127;50.922;6.988;2024-03-08T00:08:47;7.00;61.00
10171;DHT22;5127;50.922;6.988;2024-03-08T00:11:16;7.00;61.20
10171;DHT22;5127;50.922;6.988;2024-03-08T00:13:43;7.00;61.30
10171;DHT22;5127;50.922;6.988;2024-03-08T00:16:10;6.90;61.20
10171;DHT22;5127;50.922;6.988;2024-03-08T00:18:38;6.90;61.30
10171;DHT22;5127;50.922;6.988;2024-03-08T00:21:05;6.90;61.30
10171;DHT22;5127;50.922;6.988;2024-03-08T00:23:35;6.90;61.20
10171;DHT22;5127;50.922;6.988;2024-03-08T00:26:02;6.80;61.20
10171;DHT22;5127;50.922;6.988;2024-03-08T00:28:32;6.80;61.20
10171;DHT22;5127;50.922;6.988;2024-03-08T00:31:00;6.80;61.30
10171;DHT22;5127;50.922;6.988;2024-03-08T00:33:27;6.80;61.30
10171;DHT22;5127;50.922;6.988;2024-03-08T00:35:54;6.80;62.10
10171;DHT22;5127;50.922;6.988;2024-03-08T00:38:22;6.80;61.50
10171;DHT22;5127;50.922;6.988;2024-03-08T00:40:49;6.70;61.60
10171;DHT22;5127;50.922;6.988;2024-03-08T00:43:16;6.70;61.60
10171;DHT22;5127;50.922;6.988;2024-03-08T00:45:45;6.70;61.70
10171;DHT22;5127;50.922;6.988;2024-03-08T00:48:12;6.70;61.70
10171;DHT22;5127;50.922;6.988;2024-03-08T00:50:40;6.70;61.90
10171;DHT22;5127;50.922;6.988;2024-03-08T00:53:07;6.60;61.70
10171;DHT22;5127;50.922;6.988;2024-03-08T00:55:37;6.60;61.70
10171;DHT22;5127;50.922;6.988;2024-03-08T00:58:04;6.60;61.70
10171;DHT22;5127;50.922;6.988;2024-03-08T01:00:31;6.50;61.70
10171;DHT22;5127;50.922;6.988;2024-03-08T01:03:00;6.50;62.40
10171;DHT22;5127;50.922;6.988;2024-03-08T01:05:29;6.50;61.70
10171;DHT22;5127;50.922;6.988;2024-03-08T01:07:57;6.50;61.90
10171;DHT22;5127;50.922;6.988;2024-03-08T01:10:24;6.40;61.80
10171;DHT22;5127;50.922;6.988;2024-03-08T01:12:53;6.40;62.00
10171;DHT22;5127;50.922;6.988;2024-03-08T01:15:23;6.40;61.90
10171;DHT22;5127;50.922;6.988;2024-03-08T01:17:50;6.40;61.80
10171;DHT22;5127;50.922;6.988;2024-03-08T01:20:19;6.30;61.80
10171;DHT22;5127;50.922;6.988;2024-03-08T01:22:47;6.30;61.90
10171;DHT22;5127;50.922;6.988;2024-03-08T01:25:14;6.20;62.00
10171;DHT22;5127;50.922;6.988;2024-03-08T01:27:42;6.20;62.10
10171;DHT22;5127;50.922;6.988;2024-03-08T01:30:09;6.20;62.20
10171;DHT22;5127;50.922;6.988;2024-03-08T01:32:37;6.20;62.20
10171;DHT22;5127;50.922;6.988;2024-03-08T01:35:05;6.20;62.20
10171;DHT22;5127;50.922;6.988;2024-03-08T01:37:34;6.10;62.20
10171;DHT22;5127;50.922;6.988;2024-03-08T01:40:01;6.10;62.20
10171;DHT22;5127;50.922;6.988;2024-03-08T01:42:29;6.10;62.30
10171;DHT22;5127;50.922;6.988;2024-03-08T01:44:56;6.10;62.40
10171;DHT22;5127;50.922;6.988;2024-03-08T01:47:24;6.10;62.40
10171;DHT22;5127;50.922;6.988;2024-03-08T01:49:52;6.00;62.50
10171;DHT22;5127;50.922;6.988;2024-03-08T01:52:19;6.00;62.40
10171;DHT22;5127;50.922;6.988;2024-03-08T01:54:51;6.00;62.40
10171;DHT22;5127;50.922;6.988;2024-03-08T01:57:18;6.00;62.50
10171;DHT22;5127;50.922;6.988;2024-03-08T01:59:45;6.00;62.60
10171;DHT22;5127;50.922;6.988;2024-03-08T02:02:15;6.00;62.60
10171;DHT22;5127;50.922;6.988;2024-03-08T02:04:45;5.90;62.60
10171;DHT22;5127;50.922;6.988;2024-03-08T02:07:13;5.90;62.60
10171;DHT22;5127;50.922;6.988;2024-03-08T02:09:40;5.90;62.60
10171;DHT22;5127;50.922;6.988;2024-03-08T02:12:10;5.90;62.60
10171;DHT22;5127;50.922;6.988;2024-03-08T02:14:39;5.90;62.70
10171;DHT22;5127;50.922;6.988;2024-03-08T02:17:07;5.90;62.70
10171;DHT22;5127;50.922;6.988;2024-03-08T02:19:34;5.80;62.60
10171;DHT22;5127;50.922;6.988;2024-03-08T02:22:04;5.80;62.60
10171;DHT22;5127;50.922;6.988;2024-03-08T02:24:32;5.80;62.70
10171;DHT22;5127;50.922;6.988;2024-03-08T02:26:59;5.80;62.80
10171;DHT22;5127;50.922;6.988;2024-03-08T02:29:27;5.80;62.80
10171;DHT22;5127;50.922;6.988;2024-03-08T02:31:55;5.80;62.90
10171;DHT22;5127;50.922;6.988;2024-03-08T02:34:23;5.70;62.80
10171;DHT22;5127;50.922;6.988;2024-03-08T02:36:50;5.70;62.90
10171;DHT22;5127;50.922;6.988;2024-03-08T02:39:19;5.70;62.90
10171;DHT22;5127;50.922;6.988;2024-03-08T02:41:46;5.70;62.90
10171;DHT22;5127;50.922;6.988;2024-03-08T02:44:14;5.70;63.00
10171;DHT22;5127;50.922;6.988;2024-03-08T02:46:41;5.60;62.90
10171;DHT22;5127;50.922;6.988;2024-03-08T02:49:08;5.60;63.00
10171;DHT22;5127;50.922;6.988;2024-03-08T02:51:36;5.60;63.10
10171;DHT22;5127;50.922;6.988;2024-03-08T02:54:03;5.60;63.20
10171;DHT22;5127;50.922;6.988;2024-03-08T02:56:32;5.50;63.10
10171;DHT22;5127;50.922;6.988;2024-03-08T02:59:00;5.50;63.20
10171;DHT22;5127;50.922;6.988;2024-03-08T03:01:28;5.50;63.20
10171;DHT22;5127;50.922;6.988;2024-03-08T03:03:56;5.60;63.30
10171;DHT22;5127;50.922;6.988;2024-03-08T03:06:24;5.50;63.30
10171;DHT22;5127;50.922;6.988;2024-03-08T03:08:52;5.50;63.40
10171;DHT22;5127;50.922;6.988;2024-03-08T03:11:19;5.50;63.40
10171;DHT22;5127;50.922;6.988;2024-03-08T03:13:47;5.40;63.40
10171;DHT22;5127;50.922;6.988;2024-03-08T03:16:17;5.40;63.30
10171;DHT22;5127;50.922;6.988;2024-03-08T03:18:45;5.40;63.40
10171;DHT22;5127;50.922;6.988;2024-03-08T03:21:13;5.40;63.50
10171;DHT22;5127;50.922;6.988;2024-03-08T03:23:40;5.40;63.60
10171;DHT22;5127;50.922;6.988;2024-03-08T03:26:08;5.40;63.60
10171;DHT22;5127;50.922;6.988;2024-03-08T03:28:37;5.40;63.50
10171;DHT22;5127;50.922;6.988;2024-03-08T03:31:07;5.30;63.50
10171;DHT22;5127;50.922;6.988;2024-03-08T03:33:35;5.40;63.70
10171;DHT22;5127;50.922;6.988;2024-03-08T03:36:04;5.40;63.70
10171;DHT22;5127;50.922;6.988;2024-03-08T03:38:32;5.30;63.60
10171;DHT22;5127;50.922;6.988;2024-03-08T03:41:00;5.30;63.70
10171;DHT22;5127;50.922;6.988;2024-03-08T03:43:36;5.30;63.70
10171;DHT22;5127;50.922;6.988;2024-03-08T03:46:07;5.30;63.80
10171;DHT22;5127;50.922;6.988;2024-03-08T03:48:36;5.30;63.80
10171;DHT22;5127;50.922;6.988;2024-03-08T03:51:04;5.30;63.70
10171;DHT22;5127;50.922;6.988;2024-03-08T03:53:31;5.20;63.70
10171;DHT22;5127;50.922;6.988;2024-03-08T03:55:58;5.20;63.80
10171;DHT22;5127;50.922;6.988;2024-03-08T03:58:25;5.20;63.80
10171;DHT22;5127;50.922;6.988;2024-03-08T04:00:53;5.20;63.80
10171;DHT22;5127;50.922;6.988;2024-03-08T04:03:22;5.20;63.80
10171;DHT22;5127;50.922;6.988;2024-03-08T04:05:49;5.20;63.70
10171;DHT22;5127;50.922;6.988;2024-03-08T04:08:17;5.20;63.80
10171;DHT22;5127;50.922;6.988;2024-03-08T04:10:44;5.20;63.90
10171;DHT22;5127;50.922;6.988;2024-03-08T04:13:11;5.20;64.00
10171;DHT22;5127;50.922;6.988;2024-03-08T04:15:38;5.20;64.10
10171;DHT22;5127;50.922;6.988;2024-03-08T04:18:06;5.10;64.00
10171;DHT22;5127;50.922;6.988;2024-03-08T04:20:34;5.20;64.10
10171;DHT22;5127;50.922;6.988;2024-03-08T04:23:02;5.20;64.10
10171;DHT22;5127;50.922;6.988;2024-03-08T04:25:29;5.20;64.10
10171;DHT22;5127;50.922;6.988;2024-03-08T04:27:56;5.20;64.00
10171;DHT22;5127;50.922;6.988;2024-03-08T04:30:24;5.20;64.00
10171;DHT22;5127;50.922;6.988;2024-03-08T04:32:51;5.20;64.00
10171;DHT22;5127;50.922;6.988;2024-03-08T04:35:19;5.20;64.00
10171;DHT22;5127;50.922;6.988;2024-03-08T04:37:48;5.20;64.00
10171;DHT22;5127;50.922;6.988;2024-03-08T04:40:15;5.20;64.10
10171;DHT22;5127;50.922;6.988;2024-03-08T04:42:44;5.20;64.00
10171;DHT22;5127;50.922;6.988;2024-03-08T04:45:12;5.20;64.00
10171;DHT22;5127;50.922;6.988;2024-03-08T04:47:39;5.20;64.10
10171;DHT22;5127;50.922;6.988;2024-03-08T04:50:07;5.10;64.00
10171;DHT22;5127;50.922;6.988;2024-03-08T04:52:35;5.10;63.90
10171;DHT22;5127;50.922;6.988;2024-03-08T04:55:05;5.10;64.00
10171;DHT22;5127;50.922;6.988;2024-03-08T04:57:33;5.10;64.10
10171;DHT22;5127;50.922;6.988;2024-03-08T05:00:00;5.10;64.00
10171;DHT22;5127;50.922;6.988;2024-03-08T05:02:28;5.10;64.00
10171;DHT22;5127;50.922;6.988;2024-03-08T05:04:55;5.10;64.00
10171;DHT22;5127;50.922;6.988;2024-03-08T05:07:22;5.10;64.10
10171;DHT22;5127;50.922;6.988;2024-03-08T05:09:50;5.00;64.00
10171;DHT22;5127;50.922;6.988;2024-03-08T05:12:19;5.00;64.10
10171;DHT22;5127;50.922;6.988;2024-03-08T05:14:48;5.00;64.20
10171;DHT22;5127;50.922;6.988;2024-03-08T05:17:16;5.00;64.10
10171;DHT22;5127;50.922;6.988;2024-03-08T05:19:43;5.00;64.20
10171;DHT22;5127;50.922;6.988;2024-03-08T05:22:11;5.00;64.30
10171;DHT22;5127;50.922;6.988;2024-03-08T05:24:38;4.90;64.20
10171;DHT22;5127;50.922;6.988;2024-03-08T05:27:05;4.90;64.20
10171;DHT22;5127;50.922;6.988;2024-03-08T05:29:34;4.90;64.20
10171;DHT22;5127;50.922;6.988;2024-03-08T05:32:01;4.90;64.40
10171;DHT22;5127;50.922;6.988;2024-03-08T05:34:30;4.90;64.40
10171;DHT22;5127;50.922;6.988;2024-03-08T05:36:57;4.90;64.50
10171;DHT22;5127;50.922;6.988;2024-03-08T05:39:26;4.90;64.50
10171;DHT22;5127;50.922;6.988;2024-03-08T05:41:53;4.90;64.50
10171;DHT22;5127;50.922;6.988;2024-03-08T05:44:21;4.90;64.60
10171;DHT22;5127;50.922;6.988;2024-03-08T05:46:50;4.90;64.60
10171;DHT22;5127;50.922;6.988;2024-03-08T05:49:17;4.80;64.60
10171;DHT22;5127;50.922;6.988;2024-03-08T05:51:44;4.80;64.50
10171;DHT22;5127;50.922;6.988;2024-03-08T05:54:13;4.80;64.60
10171;DHT22;5127;50.922;6.988;2024-03-08T05:56:41;4.80;64.60
10171;DHT22;5127;50.922;6.988;2024-03-08T05:59:09;4.80;65.30
10171;DHT22;5127;50.922;6.988;2024-03-08T06:01:37;4.80;64.60
10171;DHT22;5127;50.922;6.988;2024-03-08T06:04:08;4.80;64.70
10171;DHT22;5127;50.922;6.988;2024-03-08T06:06:35;4.80;64.90
10171;DHT22;5127;50.922;6.988;2024-03-08T06:09:03;4.80;64.80
10171;DHT22;5127;50.922;6.988;2024-03-08T06:11:35;4.80;64.80
10171;DHT22;5127;50.922;6.988;2024-03-08T06:14:03;4.80;64.80
10171;DHT22;5127;50.922;6.988;2024-03-08T06:16:32;4.80;64.90
10171;DHT22;5127;50.922;6.988;2024-03-08T06:19:01;4.80;64.90
10171;DHT22;5127;50.922;6.988;2024-03-08T06:21:31;4.70;64.80
10171;DHT22;5127;50.922;6.988;2024-03-08T06:23:58;4.80;64.90
10171;DHT22;5127;50.922;6.988;2024-03-08T06:26:25;4.80;65.00
10171;DHT22;5127;50.922;6.988;2024-03-08T06:28:54;4.80;65.00
10171;DHT22;5127;50.922;6.988;2024-03-08T06:31:22;4.80;65.10
10171;DHT22;5127;50.922;6.988;2024-03-08T06:33:49;4.80;65.10
10171;DHT22;5127;50.922;6.988;2024-03-08T06:36:17;4.80;65.20
10171;DHT22;5127;50.922;6.988;2024-03-08T06:38:49;4.80;65.20
10171;DHT22;5127;50.922;6.988;2024-03-08T06:41:16;4.80;65.30
10171;DHT22;5127;50.922;6.988;2024-03-08T06:43:44;4.80;65.30
10171;DHT22;5127;50.922;6.988;2024-03-08T06:46:11;4.80;65.50
10171;DHT22;5127;50.922;6.988;2024-03-08T06:48:39;4.90;65.60
10171;DHT22;5127;50.922;6.988;2024-03-08T06:51:07;4.90;65.60
10171;DHT22;5127;50.922;6.988;2024-03-08T06:53:34;4.90;65.70
10171;DHT22;5127;50.922;6.988;2024-03-08T06:56:03;4.90;65.90
10171;DHT22;5127;50.922;6.988;2024-03-08T06:58:31;5.00;66.60
10171;DHT22;5127;50.922;6.988;2024-03-08T07:00:58;5.10;67.10
10171;DHT22;5127;50.922;6.988;2024-03-08T07:03:27;5.30;67.70
10171;DHT22;5127;50.922;6.988;2024-03-08T07:05:55;5.50;67.70
10171;DHT22;5127;50.922;6.988;2024-03-08T07:08:24;5.60;67.70
10171;DHT22;5127;50.922;6.988;2024-03-08T07:10:53;5.80;67.70
10171;DHT22;5127;50.922;6.988;2024-03-08T07:13:22;6.00;68.00
10171;DHT22;5127;50.922;6.988;2024-03-08T07:15:49;6.10;68.20
10171;DHT22;5127;50.922;6.988;2024-03-08T07:18:18;6.40;68.80
10171;DHT22;5127;50.922;6.988;2024-03-08T07:20:45;6.60;68.80
10171;DHT22;5127;50.922;6.988;2024-03-08T07:23:13;6.90;69.00
10171;DHT22;5127;50.922;6.988;2024-03-08T07:26:00;7.10;68.90
10171;DHT22;5127;50.922;6.988;2024-03-08T07:28:29;7.40;68.60
10171;DHT22;5127;50.922;6.988;2024-03-08T07:30:57;7.60;68.00
10171;DHT22;5127;50.922;6.988;2024-03-08T07:33:38;7.80;67.90
10171;DHT22;5127;50.922;6.988;2024-03-08T07:36:06;8.10;68.20
10171;DHT22;5127;50.922;6.988;2024-03-08T07:38:34;8.30;68.50
10171;DHT22;5127;50.922;6.988;2024-03-08T07:41:01;8.50;68.90
10171;DHT22;5127;50.922;6.988;2024-03-08T07:43:30;8.80;69.00
10171;DHT22;5127;50.922;6.988;2024-03-08T07:45:58;9.10;69.00
10171;DHT22;5127;50.922;6.988;2024-03-08T07:48:39;9.50;69.10
10171;DHT22;5127;50.922;6.988;2024-03-08T07:51:23;9.80;68.00
10171;DHT22;5127;50.922;6.988;2024-03-08T07:53:50;10.20;67.70
10171;DHT22;5127;50.922;6.988;2024-03-08T07:56:18;10.50;67.60
10171;DHT22;5127;50.922;6.988;2024-03-08T07:58:48;10.70;67.00
10171;DHT22;5127;50.922;6.988;2024-03-08T08:01:16;11.00;66.00
10171;DHT22;5127;50.922;6.988;2024-03-08T08:03:44;11.20;66.10
10171;DHT22;5127;50.922;6.988;2024-03-08T08:06:11;11.50;65.70
10171;DHT22;5127;50.922;6.988;2024-03-08T08:08:42;11.70;65.40
10171;DHT22;5127;50.922;6.988;2024-03-08T08:11:09;11.80;65.50
10171;DHT22;5127;50.922;6.988;2024-03-08T08:13:37;12.00;64.60
10171;DHT22;5127;50.922;6.988;2024-03-08T08:16:06;12.20;64.70
10171;DHT22;5127;50.922;6.988;2024-03-08T08:18:34;12.30;63.80
10171;DHT22;5127;50.922;6.988;2024-03-08T08:21:02;12.40;64.00
10171;DHT22;5127;50.922;6.988;2024-03-08T08:23:31;12.60;64.00
10171;DHT22;5127;50.922;6.988;2024-03-08T08:25:58;12.70;64.10
10171;DHT22;5127;50.922;6.988;2024-03-08T08:28:25;12.80;63.80
10171;DHT22;5127;50.922;6.988;2024-03-08T08:30:53;13.00;63.30
10171;DHT22;5127;50.922;6.988;2024-03-08T08:33:21;13.10;62.50
10171;DHT22;5127;50.922;6.988;2024-03-08T08:35:48;13.20;61.70
10171;DHT22;5127;50.922;6.988;2024-03-08T08:38:19;13.30;62.50
10171;DHT22;5127;50.922;6.988;2024-03-08T08:40:47;13.40;62.50
10171;DHT22;5127;50.922;6.988;2024-03-08T08:43:16;13.50;61.80
10171;DHT22;5127;50.922;6.988;2024-03-08T08:45:43;13.60;61.80
10171;DHT22;5127;50.922;6.988;2024-03-08T08:48:13;13.60;61.60
10171;DHT22;5127;50.922;6.988;2024-03-08T08:50:41;13.70;62.80
10171;DHT22;5127;50.922;6.988;2024-03-08T08:53:10;13.80;62.20
10171;DHT22;5127;50.922;6.988;2024-03-08T08:55:40;13.90;62.50
10171;DHT22;5127;50.922;6.988;2024-03-08T08:58:07;14.00;61.50
10171;DHT22;5127;50.922;6.988;2024-03-08T09:00:34;14.10;61.60
10171;DHT22;5127;50.922;6.988;2024-03-08T09:03:02;14.20;61.70
10171;DHT22;5127;50.922;6.988;2024-03-08T09:05:29;14.20;60.40
10171;DHT22;5127;50.922;6.988;2024-03-08T09:07:58;14.20;59.80
10171;DHT22;5127;50.922;6.988;2024-03-08T09:10:26;14.20;58.70
10171;DHT22;5127;50.922;6.988;2024-03-08T09:12:54;14.00;59.00
10171;DHT22;5127;50.922;6.988;2024-03-08T09:15:21;13.90;58.50
10171;DHT22;5127;50.922;6.988;2024-03-08T09:17:49;13.70;57.10
10171;DHT22;5127;50.922;6.988;2024-03-08T09:20:17;13.60;57.80
10171;DHT22;5127;50.922;6.988;2024-03-08T09:22:44;13.40;58.10
10171;DHT22;5127;50.922;6.988;2024-03-08T09:25:13;13.20;57.20
10171;DHT22;5127;50.922;6.988;2024-03-08T09:27:41;13.00;56.60
10171;DHT22;5127;50.922;6.988;2024-03-08T09:30:08;12.80;56.50
10171;DHT22;5127;50.922;6.988;2024-03-08T09:32:39;12.70;55.90
10171;DHT22;5127;50.922;6.988;2024-03-08T09:35:07;12.50;56.00
10171;DHT22;5127;50.922;6.988;2024-03-08T09:37:35;12.30;56.80
10171;DHT22;5127;50.922;6.988;2024-03-08T09:40:03;12.20;57.10
10171;DHT22;5127;50.922;6.988;2024-03-08T09:42:36;12.10;56.90
10171;DHT22;5127;50.922;6.988;2024-03-08T09:45:08;11.90;56.80
10171;DHT22;5127;50.922;6.988;2024-03-08T09:47:38;11.80;57.20
10171;DHT22;5127;50.922;6.988;2024-03-08T09:50:07;11.80;57.40
10171;DHT22;5127;50.922;6.988;2024-03-08T09:52:36;11.70;57.10
10171;DHT22;5127;50.922;6.988;2024-03-08T09:55:05;11.70;56.80
10171;DHT22;5127;50.922;6.988;2024-03-08T09:57:33;11.60;56.60
10171;DHT22;5127;50.922;6.988;2024-03-08T10:00:04;11.50;56.90
10171;DHT22;5127;50.922;6.988;2024-03-08T10:02:45;11.50;56.80
10171;DHT22;5127;50.922;6.988;2024-03-08T10:05:13;11.50;56.90
10171;DHT22;5127;50.922;6.988;2024-03-08T10:07:40;11.50;57.30
10171;DHT22;5127;50.922;6.988;2024-03-08T10:10:08;11.40;57.60
10171;DHT22;5127;50.922;6.988;2024-03-08T10:12:38;11.40;57.20
10171;DHT22;5127;50.922;6.988;2024-03-08T10:15:08;11.50;57.80
10171;DHT22;5127;50.922;6.988;2024-03-08T10:17:35;11.50;57.40
10171;DHT22;5127;50.922;6.988;2024-03-08T10:20:03;11.50;57.60
10171;DHT22;5127;50.922;6.988;2024-03-08T10:22:40;11.50;57.20
10171;DHT22;5127;50.922;6.988;2024-03-08T10:25:10;11.50;57.00
10171;DHT22;5127;50.922;6.988;2024-03-08T10:27:38;11.50;57.30
10171;DHT22;5127;50.922;6.988;2024-03-08T10:30:10;11.60;57.20
10171;DHT22;5127;50.922;6.988;2024-03-08T10:32:40;11.60;56.80
10171;DHT22;5127;50.922;6.988;2024-03-08T10:35:08;11.70;56.70
10171;DHT22;5127;50.922;6.988;2024-03-08T10:37:41;11.70;56.80
10171;DHT22;5127;50.922;6.988;2024-03-08T10:40:16;11.70;56.50
10171;DHT22;5127;50.922;6.988;2024-03-08T10:42:52;11.70;56.70
10171;DHT22;5127;50.922;6.988;2024-03-08T10:45:34;11.70;56.80
10171;DHT22;5127;50.922;6.988;2024-03-08T10:48:19;11.80;56.40
10171;DHT22;5127;50.922;6.988;2024-03-08T10:50:52;11.80;56.20
10171;DHT22;5127;50.922;6.988;2024-03-08T10:53:20;11.90;56.00
10171;DHT22;5127;50.922;6.988;2024-03-08T10:55:50;11.90;56.00
10171;DHT22;5127;50.922;6.988;2024-03-08T10:58:20;11.90;55.80
10171;DHT22;5127;50.922;6.988;2024-03-08T11:00:49;11.90;55.50
10171;DHT22;5127;50.922;6.988;2024-03-08T11:03:45;11.90;55.80
10171;DHT22;5127;50.922;6.988;2024-03-08T11:06:16;12.00;54.60
10171;DHT22;5127;50.922;6.988;2024-03-08T11:08:44;12.00;55.70
10171;DHT22;5127;50.922;6.988;2024-03-08T11:11:26;12.00;54.90
10171;DHT22;5127;50.922;6.988;2024-03-08T11:13:56;12.10;54.30
10171;DHT22;5127;50.922;6.988;2024-03-08T11:16:43;12.00;55.40
10171;DHT22;5127;50.922;6.988;2024-03-08T11:19:25;12.10;54.60
10171;DHT22;5127;50.922;6.988;2024-03-08T11:22:00;12.10;55.30
10171;DHT22;5127;50.922;6.988;2024-03-08T11:24:36;12.10;55.80
10171;DHT22;5127;50.922;6.988;2024-03-08T11:27:06;12.10;55.20
10171;DHT22;5127;50.922;6.988;2024-03-08T11:29:36;12.20;55.90
10171;DHT22;5127;50.922;6.988;2024-03-08T11:32:10;12.20;55.60
10171;DHT22;5127;50.922;6.988;2024-03-08T11:34:38;12.30;54.30
10171;DHT22;5127;50.922;6.988;2024-03-08T11:37:11;12.30;54.90
10171;DHT22;5127;50.922;6.988;2024-03-08T11:39:39;12.30;55.00
10171;DHT22;5127;50.922;6.988;2024-03-08T11:42:06;12.30;55.00
10171;DHT22;5127;50.922;6.988;2024-03-08T11:44:34;12.30;55.80
10171;DHT22;5127;50.922;6.988;2024-03-08T11:47:02;12.30;55.60
10171;DHT22;5127;50.922;6.988;2024-03-08T11:49:33;12.40;55.50
10171;DHT22;5127;50.922;6.988;2024-03-08T11:52:00;12.40;54.80
10171;DHT22;5127;50.922;6.988;2024-03-08T11:54:29;12.40;54.90
10171;DHT22;5127;50.922;6.988;2024-03-08T11:56:57;12.50;54.90
10171;DHT22;5127;50.922;6.988;2024-03-08T11:59:27;12.50;55.00
10171;DHT22;5127;50.922;6.988;2024-03-08T12:02:02;12.50;54.50
10171;DHT22;5127;50.922;6.988;2024-03-08T12:04:30;12.50;54.10
10171;DHT22;5127;50.922;6.988;2024-03-08T12:07:01;12.50;54.70
10171;DHT22;5127;50.922;6.988;2024-03-08T12:09:35;12.60;54.20
10171;DHT22;5127;50.922;6.988;2024-03-08T12:12:03;12.60;54.50
10171;DHT22;5127;50.922;6.988;2024-03-08T12:14:30;12.60;53.90
10171;DHT22;5127;50.922;6.988;2024-03-08T12:16:59;12.60;53.90
10171;DHT22;5127;50.922;6.988;2024-03-08T12:19:27;12.70;54.00
10171;DHT22;5127;50.922;6.988;2024-03-08T12:21:55;12.70;53.60
10171;DHT22;5127;50.922;6.988;2024-03-08T12:24:23;12.70;54.10
10171;DHT22;5127;50.922;6.988;2024-03-08T12:26:53;12.70;54.30
10171;DHT22;5127;50.922;6.988;2024-03-08T12:29:24;12.70;53.20
10171;DHT22;5127;50.922;6.988;2024-03-08T12:31:54;12.80;53.30
10171;DHT22;5127;50.922;6.988;2024-03-08T12:34:21;12.80;53.80
10171;DHT22;5127;50.922;6.988;2024-03-08T12:36:50;12.80;54.10
10171;DHT22;5127;50.922;6.988;2024-03-08T12:39:18;12.80;54.20
10171;DHT22;5127;50.922;6.988;2024-03-08T12:41:50;12.80;53.70
10171;DHT22;5127;50.922;6.988;2024-03-08T12:44:18;12.90;54.30
10171;DHT22;5127;50.922;6.988;2024-03-08T12:46:48;12.90;54.10
10171;DHT22;5127;50.922;6.988;2024-03-08T12:49:15;13.00;54.00
10171;DHT22;5127;50.922;6.988;2024-03-08T12:51:43;13.00;53.70
10171;DHT22;5127;50.922;6.988;2024-03-08T12:54:11;13.00;53.70
10171;DHT22;5127;50.922;6.988;2024-03-08T12:56:39;13.10;54.20
10171;DHT22;5127;50.922;6.988;2024-03-08T12:59:08;13.10;54.60
10171;DHT22;5127;50.922;6.988;2024-03-08T13:01:36;13.10;54.10
10171;DHT22;5127;50.922;6.988;2024-03-08T13:04:04;13.20;54.40
10171;DHT22;5127;50.922;6.988;2024-03-08T13:06:32;13.20;54.60
10171;DHT22;5127;50.922;6.988;2024-03-08T13:09:00;13.20;54.30
10171;DHT22;5127;50.922;6.988;2024-03-08T13:11:31;13.30;54.20
10171;DHT22;5127;50.922;6.988;2024-03-08T13:14:03;13.30;54.40
10171;DHT22;5127;50.922;6.988;2024-03-08T13:16:32;13.40;54.20
10171;DHT22;5127;50.922;6.988;2024-03-08T13:19:00;13.40;53.70
10171;DHT22;5127;50.922;6.988;2024-03-08T13:21:28;13.40;54.40
10171;DHT22;5127;50.922;6.988;2024-03-08T13:23:56;13.50;54.60
10171;DHT22;5127;50.922;6.988;2024-03-08T13:26:25;13.50;54.40
10171;DHT22;5127;50.922;6.988;2024-03-08T13:28:58;13.50;54.00
10171;DHT22;5127;50.922;6.988;2024-03-08T13:31:26;13.50;53.50
10171;DHT22;5127;50.922;6.988;2024-03-08T13:33:54;13.60;53.90
10171;DHT22;5127;50.922;6.988;2024-03-08T13:36:24;13.60;53.40
10171;DHT22;5127;50.922;6.988;2024-03-08T13:38:55;13.60;53.50
10171;DHT22;5127;50.922;6.988;2024-03-08T13:41:25;13.60;53.70
10171;DHT22;5127;50.922;6.988;2024-03-08T13:43:52;13.70;53.60
10171;DHT22;5127;50.922;6.988;2024-03-08T13:46:21;13.60;53.20
10171;DHT22;5127;50.922;6.988;2024-03-08T13:48:50;13.70;53.80
10171;DHT22;5127;50.922;6.988;2024-03-08T13:51:21;13.70;52.90
10171;DHT22;5127;50.922;6.988;2024-03-08T13:53:51;13.70;53.50
10171;DHT22;5127;50.922;6.988;2024-03-08T13:56:18;13.70;53.50
10171;DHT22;5127;50.922;6.988;2024-03-08T13:58:46;13.70;53.40
10171;DHT22;5127;50.922;6.988;2024-03-08T14:01:13;13.70;53.10
10171;DHT22;5127;50.922;6.988;2024-03-08T14:03:41;13.70;53.10
10171;DHT22;5127;50.922;6.988;2024-03-08T14:06:08;13.70;52.00
10171;DHT22;5127;50.922;6.988;2024-03-08T14:08:37;13.70;51.90
10171;DHT22;5127;50.922;6.988;2024-03-08T14:11:05;13.70;52.30
10171;DHT22;5127;50.922;6.988;2024-03-08T14:13:41;13.70;52.30
10171;DHT22;5127;50.922;6.988;2024-03-08T14:16:11;13.70;52.10
10171;DHT22;5127;50.922;6.988;2024-03-08T14:18:38;13.70;52.60
10171;DHT22;5127;50.922;6.988;2024-03-08T14:21:05;13.70;52.40
10171;DHT22;5127;50.922;6.988;2024-03-08T14:23:34;13.80;52.60
10171;DHT22;5127;50.922;6.988;2024-03-08T14:26:03;13.80;52.80
10171;DHT22;5127;50.922;6.988;2024-03-08T14:28:33;13.80;52.20
10171;DHT22;5127;50.922;6.988;2024-03-08T14:31:00;13.80;52.70
10171;DHT22;5127;50.922;6.988;2024-03-08T14:33:29;13.80;53.00
10171;DHT22;5127;50.922;6.988;2024-03-08T14:35:57;13.80;53.10
10171;DHT22;5127;50.922;6.988;2024-03-08T14:38:25;13.80;53.50
10171;DHT22;5127;50.922;6.988;2024-03-08T14:40:53;13.80;53.50
10171;DHT22;5127;50.922;6.988;2024-03-08T14:43:22;13.80;53.10
10171;DHT22;5127;50.922;6.988;2024-03-08T14:45:50;13.90;53.10
10171;DHT22;5127;50.922;6.988;2024-03-08T14:48:18;13.90;53.60
10171;DHT22;5127;50.922;6.988;2024-03-08T14:50:46;13.90;53.70
10171;DHT22;5127;50.922;6.988;2024-03-08T14:53:14;13.90;53.00
10171;DHT22;5127;50.922;6.988;2024-03-08T14:55:42;13.90;52.40
10171;DHT22;5127;50.922;6.988;2024-03-08T14:58:13;13.90;52.50
10171;DHT22;5127;50.922;6.988;2024-03-08T15:00:41;13.90;52.70
10171;DHT22;5127;50.922;6.988;2024-03-08T15:03:09;13.90;52.50
10171;DHT22;5127;50.922;6.988;2024-03-08T15:05:39;13.90;52.90
10171;DHT22;5127;50.922;6.988;2024-03-08T15:08:08;13.90;52.40
10171;DHT22;5127;50.922;6.988;2024-03-08T15:10:45;13.90;52.80
10171;DHT22;5127;50.922;6.988;2024-03-08T15:13:13;13.90;52.70
10171;DHT22;5127;50.922;6.988;2024-03-08T15:15:50;13.90;52.70
10171;DHT22;5127;50.922;6.988;2024-03-08T15:18:22;13.90;52.60
10171;DHT22;5127;50.922;6.988;2024-03-08T15:20:52;13.90;53.10
10171;DHT22;5127;50.922;6.988;2024-03-08T15:23:19;13.90;52.80
10171;DHT22;5127;50.922;6.988;2024-03-08T15:25:47;13.90;52.80
10171;DHT22;5127;50.922;6.988;2024-03-08T15:28:16;13.90;52.50
10171;DHT22;5127;50.922;6.988;2024-03-08T15:30:46;13.90;52.50
10171;DHT22;5127;50.922;6.988;2024-03-08T15:33:21;13.90;52.40
10171;DHT22;5127;50.922;6.988;2024-03-08T15:35:51;13.90;52.50
10171;DHT22;5127;50.922;6.988;2024-03-08T15:38:25;13.90;52.50
10171;DHT22;5127;50.922;6.988;2024-03-08T15:40:53;13.90;52.40
10171;DHT22;5127;50.922;6.988;2024-03-08T15:43:21;13.90;52.30
10171;DHT22;5127;50.922;6.988;2024-03-08T15:45:48;13.90;52.70
10171;DHT22;5127;50.922;6.988;2024-03-08T15:48:16;13.90;52.00
10171;DHT22;5127;50.922;6.988;2024-03-08T15:50:45;13.90;52.10
10171;DHT22;5127;50.922;6.988;2024-03-08T15:53:13;13.90;52.10
10171;DHT22;5127;50.922;6.988;2024-03-08T15:55:41;13.90;52.80
10171;DHT22;5127;50.922;6.988;2024-03-08T15:58:10;13.90;51.90
10171;DHT22;5127;50.922;6.988;2024-03-08T16:00:38;13.90;52.20
10171;DHT22;5127;50.922;6.988;2024-03-08T16:03:13;13.90;51.70
10171;DHT22;5127;50.922;6.988;2024-03-08T16:05:41;13.80;51.40